Time;durP1;ratioP1;P1;durP2;ratioP2;P2;SDS_P1;SDS_P2;PMS_P1;PMS_P2;Temp;Humidity;BMP_temperature;BMP_pressure;BME280_temperature;BME280_humidity;BME280_pressure;Samples;Min_cycle;Max_cycle;Signal;HPM_P1;HPM_P2
2023/09/24 00:01:02;;;;;;;;;;;;;;;27.72;42.03;94859.41;5045359;28;9192;-55
2023/09/24 00:03:32;;;;;;;;;;;;;;;27.70;42.46;94861.94;5051039;28;7143;-55
2023/09/24 00:06:22;;;;;;;;;;;;;;;27.72;42.28;94859.41;5038172;28;7140;-55
2023/09/24 00:08:48;;;;;;;;;;;;;;;27.72;42.14;94859.41;5046998;28;9231;-55
2023/09/24 00:11:15;;;;;;;;;;;;;;;27.73;42.10;94849.09;5050153;28;9394;-55
2023/09/24 00:14:01;;;;;;;;;;;;;;;27.71;41.99;94857.16;5039314;28;6995;-55
2023/09/24 00:16:26;;;;;;;;;;;;;;;27.74;41.74;94864.41;5052984;28;9282;-55
2023/09/24 00:19:10;;;;;;;;;;;;;;;27.72;42.28;94864.19;5049998;28;7096;-55
2023/09/24 00:21:47;;;;;;;;;;;;;;;27.71;42.23;94854.41;5046756;28;7237;-55
2023/09/24 00:24:50;;;;;;;;;;;;;;;27.72;42.16;94853.13;5048629;28;9643;-55
2023/09/24 00:27:29;;;;;;;;;;;;;;;27.73;41.81;94849.84;5040458;28;8820;-55
2023/09/24 00:29:57;;;;;;;;;;;;;;;27.74;41.75;94847.81;5055488;28;7004;-55
2023/09/24 00:32:37;;;;;;;;;;;;;;;27.73;41.70;94849.09;5036432;28;9146;-54
2023/09/24 00:35:17;;;;;;;;;;;;;;;27.74;42.31;94856.13;5050300;28;9012;-60
2023/09/24 00:37:45;;;;;;;;;;;;;;;27.72;42.09;94864.19;5045261;28;7415;-60
2023/09/24 00:40:22;;;;;;;;;;;;;;;27.73;41.64;94860.16;5039414;28;8977;-60
2023/09/24 00:42:58;;;;;;;;;;;;;;;27.72;42.17;94859.41;5036331;28;7158;-60
2023/09/24 00:45:28;;;;;;;;;;;;;;;27.71;41.72;94863.41;5038847;28;7947;-60
2023/09/24 00:48:03;;;;;;;;;;;;;;;27.75;42.12;94865.91;5036904;28;7527;-60
2023/09/24 00:50:41;;;;;;;;;;;;;;;27.74;41.84;94861.66;5045100;28;7241;-60
2023/09/24 00:53:09;;;;;;;;;;;;;;;27.74;42.31;94867.16;5038109;28;7313;-60
2023/09/24 00:55:37;;;;;;;;;;;;;;;27.73;41.51;94860.16;5039684;28;8277;-60
2023/09/24 00:58:04;;;;;;;;;;;;;;;27.71;41.70;94868.22;5031782;28;9179;-60
2023/09/24 01:00:37;;;;;;;;;;;;;;;27.72;41.71;94875.22;5052589;28;7077;-60
2023/09/24 01:03:39;;;;;;;;;;;;;;;27.71;41.67;94870.97;5068094;28;7478;-60
2023/09/24 01:06:18;;;;;;;;;;;;;;;27.69;41.84;94876.28;4993546;28;7559;-60
2023/09/24 01:08:45;;;;;;;;;;;;;;;27.71;41.67;94873.75;4998536;28;7062;-60
2023/09/24 01:11:48;;;;;;;;;;;;;;;27.71;41.82;94876.50;4987161;28;8765;-60
2023/09/24 01:14:18;;;;;;;;;;;;;;;27.69;42.36;94881.81;4908233;29;7460;-60
2023/09/24 01:16:44;;;;;;;;;;;;;;;27.64;42.15;94877.81;4927616;29;9001;-60
2023/09/24 01:19:10;;;;;;;;;;;;;;;27.62;42.08;94886.59;4926595;29;7224;-60
2023/09/24 01:21:37;;;;;;;;;;;;;;;27.63;41.68;94885.34;4923496;29;7252;-60
2023/09/24 01:24:12;;;;;;;;;;;;;;;27.63;42.26;94896.41;4924111;29;9145;-60
2023/09/24 01:27:04;;;;;;;;;;;;;;;27.64;41.62;94908.22;4920985;29;7330;-60
2023/09/24 01:29:45;;;;;;;;;;;;;;;27.66;41.39;94899.41;4931120;29;9060;-60
2023/09/24 01:32:28;;;;;;;;;;;;;;;27.62;42.11;94894.88;4927365;29;7346;-60
2023/09/24 01:34:57;;;;;;;;;;;;;;;27.64;41.83;94897.88;4914507;29;6917;-60
2023/09/24 01:37:25;;;;;;;;;;;;;;;27.64;41.69;94908.94;4929475;29;8766;-60
2023/09/24 01:39:52;;;;;;;;;;;;;;;27.64;41.78;94892.34;4923674;29;9029;-60
2023/09/24 01:42:20;;;;;;;;;;;;;;;27.64;42.02;94897.88;4951890;28;9110;-60
2023/09/24 01:44:56;;;;;;;;;;;;;;;27.63;41.81;94893.63;4973972;28;7277;-59
2023/09/24 01:47:22;;;;;;;;;;;;;;;27.63;41.71;94888.09;4976940;28;7989;-59
2023/09/24 01:49:51;;;;;;;;;;;;;;;27.61;41.30;94871.28;5005140;28;7175;-59
2023/09/24 01:52:21;;;;;;;;;;;;;;;27.63;42.00;94874.28;5037075;28;7335;-59
2023/09/24 01:54:51;;;;;;;;;;;;;;;27.59;41.86;94876.59;5051818;28;7006;-59
2023/09/24 01:57:18;;;;;;;;;;;;;;;27.59;41.72;94873.81;5053859;28;9054;-59
2023/09/24 02:00:11;;;;;;;;;;;;;;;27.61;41.63;94881.59;5041487;28;9320;-59
2023/09/24 02:02:42;;;;;;;;;;;;;;;27.58;41.63;94888.88;5040851;28;7067;-59
2023/09/24 02:05:11;;;;;;;;;;;;;;;27.59;41.66;94884.88;5059279;28;9575;-59
2023/09/24 02:07:38;;;;;;;;;;;;;;;27.57;41.99;94895.69;5044575;28;7238;-59
2023/09/24 02:10:05;;;;;;;;;;;;;;;27.61;41.56;94898.16;5048884;28;8725;-58
2023/09/24 02:12:46;;;;;;;;;;;;;;;27.57;42.04;94887.41;5062628;28;7262;-59
2023/09/24 02:15:34;;;;;;;;;;;;;;;27.60;42.02;94889.13;5047249;28;6975;-59
2023/09/24 02:18:04;;;;;;;;;;;;;;;27.58;42.13;94886.13;5044895;28;8908;-59
2023/09/24 02:20:52;;;;;;;;;;;;;;;27.57;41.81;94887.41;5082783;28;9048;-59
2023/09/24 02:23:18;;;;;;;;;;;;;;;27.58;41.88;94893.66;5075937;28;8889;-59
2023/09/24 02:26:03;;;;;;;;;;;;;;;27.55;41.97;94884.41;5042765;28;7310;-59
2023/09/24 02:28:31;;;;;;;;;;;;;;;27.53;41.96;94884.13;5065844;28;7475;-59
2023/09/24 02:31:18;;;;;;;;;;;;;;;27.54;42.20;94891.19;5061924;28;7492;-59
2023/09/24 02:33:44;;;;;;;;;;;;;;;27.56;41.92;94896.94;5071203;28;7011;-58
2023/09/24 02:36:13;;;;;;;;;;;;;;;27.54;41.78;94907.00;5050519;28;9062;-59
2023/09/24 02:38:41;;;;;;;;;;;;;;;27.55;41.80;94903.75;5046273;28;8972;-59
2023/09/24 02:41:11;;;;;;;;;;;;;;;27.54;41.88;94902.22;5055815;28;9150;-59
2023/09/24 02:43:39;;;;;;;;;;;;;;;27.52;41.87;94896.47;5049969;28;7231;-59
2023/09/24 02:46:17;;;;;;;;;;;;;;;27.54;41.92;94901.47;5043359;28;9824;-59
2023/09/24 02:48:57;;;;;;;;;;;;;;;27.54;41.96;94907.00;5045306;28;6997;-59
2023/09/24 02:51:32;;;;;;;;;;;;;;;27.52;42.23;94901.22;5050425;28;9117;-59
2023/09/24 02:54:03;;;;;;;;;;;;;;;27.51;41.80;94899.75;5050261;28;7229;-60
2023/09/24 02:56:42;;;;;;;;;;;;;;;27.50;41.85;94899.00;5040323;28;7657;-60
2023/09/24 02:59:14;;;;;;;;;;;;;;;27.52;41.95;94904.00;5046509;28;7005;-60
2023/09/24 03:02:37;;;;;;;;;;;;;;;27.53;41.87;94905.50;5042479;28;7471;-60
2023/09/24 03:05:06;;;;;;;;;;;;;;;27.53;41.53;94909.00;4971588;28;7251;-60
2023/09/24 03:07:35;;;;;;;;;;;;;;;27.49;41.81;94908.53;4974225;28;7395;-60
2023/09/24 03:10:19;;;;;;;;;;;;;;;27.48;41.52;94900.75;4985134;28;7010;-60
2023/09/24 03:12:48;;;;;;;;;;;;;;;27.48;42.00;94918.09;4991850;28;7459;-60
2023/09/24 03:15:24;;;;;;;;;;;;;;;27.49;41.81;94916.81;4970841;28;7410;-60
2023/09/24 03:18:12;;;;;;;;;;;;;;;27.45;41.41;94908.06;4989026;28;7377;-60
2023/09/24 03:20:58;;;;;;;;;;;;;;;27.42;41.85;94914.63;4976586;28;7230;-60
2023/09/24 03:23:25;;;;;;;;;;;;;;;27.40;41.79;94914.38;4975115;28;9162;-60
2023/09/24 03:26:03;;;;;;;;;;;;;;;27.38;41.83;94914.13;4991917;28;6989;-60
2023/09/24 03:28:41;;;;;;;;;;;;;;;27.37;41.53;94920.91;4981491;28;7315;-60
2023/09/24 03:31:19;;;;;;;;;;;;;;;27.34;41.98;94919.13;4988653;28;7223;-60
2023/09/24 03:33:52;;;;;;;;;;;;;;;27.37;42.05;94920.16;4970764;28;7214;-60
2023/09/24 03:36:47;;;;;;;;;;;;;;;27.35;41.93;94926.19;4987827;28;8972;-60
2023/09/24 03:39:15;;;;;;;;;;;;;;;27.35;42.03;94926.19;4944068;28;7034;-60
2023/09/24 03:41:41;;;;;;;;;;;;;;;27.35;41.96;94926.19;5008086;28;7586;-60
2023/09/24 03:44:22;;;;;;;;;;;;;;;27.32;41.71;94918.88;4975133;28;8669;-60
2023/09/24 03:47:04;;;;;;;;;;;;;;;27.34;42.11;94915.63;4985608;28;7405;-60
2023/09/24 03:49:57;;;;;;;;;;;;;;;27.34;41.79;94930.19;5009478;28;7334;-60
2023/09/24 03:52:23;;;;;;;;;;;;;;;27.29;41.84;94921.94;5005806;28;8639;-60
2023/09/24 03:54:49;;;;;;;;;;;;;;;27.28;41.81;94932.22;4990155;28;7312;-60
2023/09/24 03:57:16;;;;;;;;;;;;;;;27.23;42.04;94932.25;4972229;28;6974;-60
2023/09/24 03:59:48;;;;;;;;;;;;;;;27.25;41.96;94938.75;4984412;28;7480;-60
2023/09/24 04:02:28;;;;;;;;;;;;;;;27.24;42.23;94937.25;4978025;28;7279;-60
2023/09/24 04:05:09;;;;;;;;;;;;;;;27.24;41.76;94937.25;5006091;28;7042;-60
2023/09/24 04:07:54;;;;;;;;;;;;;;;27.24;41.74;94936.50;4988864;28;7001;-59
2023/09/24 04:10:45;;;;;;;;;;;;;;;27.24;41.68;94940.03;4985047;28;7087;-60
2023/09/24 04:13:37;;;;;;;;;;;;;;;27.23;42.24;94944.03;5005812;28;8784;-60
2023/09/24 04:16:16;;;;;;;;;;;;;;;27.20;42.06;94944.31;5023053;28;7304;-60
2023/09/24 04:18:46;;;;;;;;;;;;;;;27.19;42.15;94942.78;5061276;28;7235;-60
2023/09/24 04:21:45;;;;;;;;;;;;;;;27.18;41.93;94942.06;5038298;28;7051;-60
2023/09/24 04:24:37;;;;;;;;;;;;;;;27.17;42.07;94939.78;5044483;28;7239;-60
2023/09/24 04:27:10;;;;;;;;;;;;;;;27.16;42.22;94941.81;5041950;28;9014;-60
2023/09/24 04:30:07;;;;;;;;;;;;;;;27.17;42.38;94943.31;5058853;28;7314;-60
2023/09/24 04:32:39;;;;;;;;;;;;;;;27.18;42.72;94947.59;5041811;28;7318;-60
2023/09/24 04:35:27;;;;;;;;;;;;;;;27.15;42.35;94936.78;5044654;28;9372;-60
2023/09/24 04:37:56;;;;;;;;;;;;;;;27.17;41.89;94948.84;5040023;28;9372;-60
2023/09/24 04:40:25;;;;;;;;;;;;;;;27.17;42.02;94950.84;5074019;28;7310;-60
2023/09/24 04:42:51;;;;;;;;;;;;;;;27.17;42.18;94950.84;5043296;28;9208;-60
2023/09/24 04:45:37;;;;;;;;;;;;;;;27.15;41.99;94961.66;5042506;28;6990;-60
2023/09/24 04:48:05;;;;;;;;;;;;;;;27.15;41.95;94958.88;5039203;28;7267;-60
2023/09/24 04:50:33;;;;;;;;;;;;;;;27.11;42.21;94950.88;5048786;28;7271;-59
2023/09/24 04:53:20;;;;;;;;;;;;;;;27.13;42.16;94951.13;5050757;28;7005;-60
2023/09/24 04:55:47;;;;;;;;;;;;;;;27.14;42.02;94958.16;5079049;28;7130;-61
2023/09/24 04:58:43;;;;;;;;;;;;;;;27.18;42.20;94964.16;5050580;28;7449;-60
2023/09/24 05:01:16;;;;;;;;;;;;;;;27.18;42.16;94963.41;5077246;28;7019;-60
2023/09/24 05:03:59;;;;;;;;;;;;;;;27.18;42.00;94964.16;5048907;28;7320;-60
2023/09/24 05:06:27;;;;;;;;;;;;;;;27.15;41.86;94967.94;5048350;28;7193;-60
2023/09/24 05:08:56;;;;;;;;;;;;;;;27.15;42.40;94967.16;5049138;28;7258;-60
2023/09/24 05:11:41;;;;;;;;;;;;;;;27.15;42.14;94967.94;5037910;28;7938;-60
2023/09/24 05:14:11;;;;;;;;;;;;;;;27.15;42.23;94967.16;5051536;28;7308;-61
2023/09/24 05:16:40;;;;;;;;;;;;;;;27.11;42.71;94972.22;5053306;28;9043;-61
2023/09/24 05:19:13;;;;;;;;;;;;;;;27.11;42.04;94969.44;5048010;28;6988;-61
2023/09/24 05:22:05;;;;;;;;;;;;;;;27.12;42.05;94984.75;5038963;28;8776;-61
2023/09/24 05:24:49;;;;;;;;;;;;;;;27.11;42.24;94980.50;5042009;28;8366;-61
2023/09/24 05:27:22;;;;;;;;;;;;;;;27.08;41.51;94976.00;5020594;28;7273;-61
2023/09/24 05:29:50;;;;;;;;;;;;;;;27.08;42.13;94970.47;5054710;28;9160;-61
2023/09/24 05:32:25;;;;;;;;;;;;;;;27.05;42.31;94971.47;5012387;28;7325;-61
2023/09/24 05:34:54;;;;;;;;;;;;;;;27.10;42.51;94971.44;5030480;28;6994;-61
2023/09/24 05:37:21;;;;;;;;;;;;;;;27.12;42.16;94976.47;5053379;28;7450;-61
2023/09/24 05:39:57;;;;;;;;;;;;;;;27.11;42.21;94981.25;5053937;28;9043;-61
2023/09/24 05:42:24;;;;;;;;;;;;;;;27.11;42.25;94984.00;5024009;28;7068;-61
2023/09/24 05:45:19;;;;;;;;;;;;;;;27.06;42.21;94979.25;5019633;28;7301;-61
2023/09/24 05:48:15;;;;;;;;;;;;;;;27.07;42.13;94978.00;4977786;28;7250;-61
2023/09/24 05:50:42;;;;;;;;;;;;;;;27.07;42.01;94983.53;4934204;29;7252;-61
2023/09/24 05:53:10;;;;;;;;;;;;;;;27.07;41.89;94985.53;4950815;28;8491;-61
2023/09/24 05:55:36;;;;;;;;;;;;;;;27.06;42.22;94982.00;4946023;29;9490;-61
2023/09/24 05:58:04;;;;;;;;;;;;;;;27.05;42.23;94988.81;4941039;28;7238;-61
2023/09/24 06:00:33;;;;;;;;;;;;;;;27.07;42.05;94985.53;4948032;28;7261;-61
2023/09/24 06:03:02;;;;;;;;;;;;;;;27.02;42.25;94981.53;4948565;28;9120;-61
2023/09/24 06:05:59;;;;;;;;;;;;;;;27.06;42.27;94990.28;4967579;28;7276;-61
2023/09/24 06:08:27;;;;;;;;;;;;;;;27.05;41.94;95002.59;4874226;29;9170;-61
2023/09/24 06:10:53;;;;;;;;;;;;;;;27.01;42.35;94996.59;4845200;29;7343;-61
2023/09/24 06:13:48;;;;;;;;;;;;;;;27.04;42.28;95001.09;4853708;29;7220;-61
2023/09/24 06:16:27;;;;;;;;;;;;;;;27.06;41.59;95001.34;4813395;29;7273;-61
2023/09/24 06:18:54;;;;;;;;;;;;;;;27.05;42.01;94993.56;4812728;29;7188;-61
2023/09/24 06:21:53;;;;;;;;;;;;;;;27.06;42.36;94997.81;4811277;29;7258;-61
2023/09/24 06:24:29;;;;;;;;;;;;;;;27.05;41.88;94996.31;4799650;29;7744;-61
2023/09/24 06:27:30;;;;;;;;;;;;;;;27.04;42.25;94998.31;4812841;29;7108;-61
2023/09/24 06:30:10;;;;;;;;;;;;;;;27.03;42.44;94996.84;4803539;29;7229;-61
2023/09/24 06:33:00;;;;;;;;;;;;;;;27.04;41.91;94995.56;4808927;29;7268;-61
2023/09/24 06:35:26;;;;;;;;;;;;;;;27.04;42.53;95000.34;4794448;29;7203;-60
2023/09/24 06:37:52;;;;;;;;;;;;;;;27.05;42.20;95002.59;4805639;29;9100;-61
2023/09/24 06:40:27;;;;;;;;;;;;;;;27.04;42.15;95001.09;4805264;29;6960;-60
2023/09/24 06:43:12;;;;;;;;;;;;;;;27.04;42.78;95000.34;4809402;29;7332;-61
2023/09/24 06:46:17;;;;;;;;;;;;;;;27.05;42.28;95005.38;4876126;29;7325;-60
2023/09/24 06:48:51;;;;;;;;;;;;;;;27.05;42.47;95007.38;4894550;29;9209;-61
2023/09/24 06:51:27;;;;;;;;;;;;;;;27.04;42.42;94998.31;4882059;29;8751;-61
2023/09/24 06:54:13;;;;;;;;;;;;;;;27.02;42.24;95009.13;4931705;28;7251;-61
2023/09/24 06:56:39;;;;;;;;;;;;;;;27.04;42.26;95003.84;4955185;28;7091;-61
2023/09/24 06:59:09;;;;;;;;;;;;;;;27.04;42.24;95009.38;4980072;28;7269;-60
2023/09/24 07:01:44;;;;;;;;;;;;;;;27.02;42.46;95011.13;5036511;28;9116;-60
2023/09/24 07:04:45;;;;;;;;;;;;;;;27.04;42.44;95012.13;5040860;28;8923;-61
2023/09/24 07:07:27;;;;;;;;;;;;;;;27.05;42.44;95010.88;5027660;28;7139;-61
2023/09/24 07:09:55;;;;;;;;;;;;;;;27.05;42.43;95010.88;5015462;28;7301;-61
2023/09/24 07:12:26;;;;;;;;;;;;;;;27.04;42.11;95014.13;5022609;28;9204;-61
2023/09/24 07:15:17;;;;;;;;;;;;;;;27.04;42.48;95012.13;5039508;28;9105;-61
2023/09/24 07:17:47;;;;;;;;;;;;;;;27.02;42.38;95013.88;5035986;28;7060;-61
2023/09/24 07:20:15;;;;;;;;;;;;;;;27.02;42.31;95022.94;5069608;28;9061;-61
2023/09/24 07:22:42;;;;;;;;;;;;;;;27.01;42.37;95021.44;5050019;28;9283;-61
2023/09/24 07:25:10;;;;;;;;;;;;;;;27.01;42.42;95018.69;5049484;28;7049;-61
2023/09/24 07:27:41;;;;;;;;;;;;;;;27.02;42.32;95024.94;5060006;28;9613;-61
2023/09/24 07:30:08;;;;;;;;;;;;;;;27.00;42.21;95021.94;5043675;28;8937;-61
2023/09/24 07:33:11;;;;;;;;;;;;;;;27.03;42.41;95029.22;5049124;28;7227;-61
2023/09/24 07:35:40;;;;;;;;;;;;;;;27.03;42.67;95021.69;4996335;28;7181;-58
2023/09/24 07:38:09;;;;;;;;;;;;;;;27.04;42.28;95027.94;4994480;28;8475;-58
2023/09/24 07:40:56;;;;;;;;;;;;;;;27.02;42.35;95030.47;4981369;28;9204;-58
2023/09/24 07:43:36;;;;;;;;;;;;;;;27.03;42.10;95027.22;4964521;28;7081;-58
2023/09/24 07:46:06;;;;;;;;;;;;;;;27.03;41.97;95035.50;4985493;28;9005;-58
2023/09/24 07:49:10;;;;;;;;;;;;;;;27.02;42.04;95031.22;4993198;28;7413;-58
2023/09/24 07:51:50;;;;;;;;;;;;;;;26.99;42.47;95037.00;4977143;28;8793;-57
2023/09/24 07:54:35;;;;;;;;;;;;;;;26.99;42.51;95037.00;4945551;28;7252;-57
2023/09/24 07:57:01;;;;;;;;;;;;;;;27.02;42.37;95033.22;5003447;28;9021;-57
2023/09/24 07:59:41;;;;;;;;;;;;;;;27.01;42.66;95032.50;4975029;28;6964;-57
2023/09/24 08:02:18;;;;;;;;;;;;;;;27.03;42.68;95034.75;4996423;28;7014;-57
2023/09/24 08:04:53;;;;;;;;;;;;;;;27.05;42.36;95035.75;4968266;28;9150;-58
2023/09/24 08:07:32;;;;;;;;;;;;;;;27.07;42.57;95035.97;4989342;28;7399;-59
2023/09/24 08:09:59;;;;;;;;;;;;;;;27.05;42.53;95043.25;5024408;28;7200;-59
2023/09/24 08:12:31;;;;;;;;;;;;;;;27.07;42.40;95041.50;5068033;28;7324;-59
2023/09/24 08:14:57;;;;;;;;;;;;;;;27.08;42.58;95039.50;5043955;28;9188;-59
2023/09/24 08:17:25;;;;;;;;;;;;;;;27.07;41.96;95033.22;5078227;28;7147;-59
2023/09/24 08:19:54;;;;;;;;;;;;;;;27.09;42.37;95038.22;5054607;28;7057;-60
2023/09/24 08:22:27;;;;;;;;;;;;;;;27.06;42.00;95031.72;5051148;28;7237;-59
2023/09/24 08:24:57;;;;;;;;;;;;;;;27.06;42.63;95039.22;5053844;28;7344;-59
2023/09/24 08:27:49;;;;;;;;;;;;;;;27.09;43.04;95041.75;5056243;28;9151;-59
2023/09/24 08:30:33;;;;;;;;;;;;;;;27.14;42.82;95049.28;4998777;28;8869;-59
2023/09/24 08:33:00;;;;;;;;;;;;;;;27.15;42.72;95038.97;4962149;28;7259;-59
2023/09/24 08:35:39;;;;;;;;;;;;;;;27.12;42.41;95035.19;4995860;28;7414;-59
2023/09/24 08:38:06;;;;;;;;;;;;;;;27.11;42.78;95044.00;5005486;28;7117;-59
2023/09/24 08:40:33;;;;;;;;;;;;;;;27.11;42.56;95039.25;4979738;28;8200;-61
2023/09/24 08:43:14;;;;;;;;;;;;;;;27.10;42.52;95037.72;5004063;28;7318;-60
2023/09/24 08:45:44;;;;;;;;;;;;;;;27.08;43.05;95039.50;4983836;28;7530;-61
2023/09/24 08:48:10;;;;;;;;;;;;;;;27.05;42.78;95038.50;4970098;28;7819;-61
2023/09/24 08:50:38;;;;;;;;;;;;;;;27.02;43.10;95038.75;4998152;28;7259;-61
2023/09/24 08:53:16;;;;;;;;;;;;;;;27.07;43.54;95038.75;5001472;28;7508;-62
2023/09/24 08:55:44;;;;;;;;;;;;;;;27.08;43.14;95039.50;4983698;28;7252;-61
2023/09/24 08:58:10;;;;;;;;;;;;;;;27.07;42.57;95038.75;4972725;28;9138;-61
2023/09/24 09:00:46;;;;;;;;;;;;;;;27.08;43.26;95034.72;4990699;28;7371;-61
2023/09/24 09:03:39;;;;;;;;;;;;;;;27.10;42.81;95040.47;4974579;28;7469;-61
2023/09/24 09:06:06;;;;;;;;;;;;;;;27.12;42.96;95029.69;4971860;28;7011;-61
2023/09/24 09:08:52;;;;;;;;;;;;;;;27.09;43.42;95033.47;5043832;28;8405;-61
2023/09/24 09:11:20;;;;;;;;;;;;;;;27.11;43.03;95033.72;5061523;28;9086;-61
2023/09/24 09:14:13;;;;;;;;;;;;;;;27.05;43.98;95032.97;5062262;28;8719;-62
2023/09/24 09:17:10;;;;;;;;;;;;;;;27.01;44.36;95028.97;4985668;28;7647;-62
2023/09/24 09:19:57;;;;;;;;;;;;;;;26.99;44.22;95026.69;4990301;28;9097;-62
2023/09/24 09:22:35;;;;;;;;;;;;;;;26.95;44.31;95031.72;4989618;28;9227;-61
2023/09/24 09:25:17;;;;;;;;;;;;;;;27.02;43.89;95031.22;4987418;28;7519;-61
2023/09/24 09:28:02;;;;;;;;;;;;;;;27.06;44.13;95017.16;4984286;28;7316;-62
2023/09/24 09:31:06;;;;;;;;;;;;;;;27.08;43.78;95028.47;4981683;28;9554;-62
2023/09/24 09:33:41;;;;;;;;;;;;;;;27.07;43.49;95024.19;4988096;28;8992;-62
2023/09/24 09:39:59;;;;;;;;;;;;;;;27.01;43.71;95021.44;4950473;28;8393;-61
2023/09/24 09:42:34;;;;;;;;;;;;;;;27.05;44.08;95021.19;4930665;29;7249;-61
2023/09/24 09:45:15;;;;;;;;;;;;;;;27.07;43.69;95026.94;4950467;28;6967;-61
2023/09/24 09:48:07;;;;;;;;;;;;;;;27.11;43.34;95030.19;4942351;29;7273;-61
2023/09/24 09:50:44;;;;;;;;;;;;;;;27.14;42.97;95026.44;4937697;29;8772;-61
2023/09/24 09:53:18;;;;;;;;;;;;;;;27.14;43.08;95020.91;4946278;28;9398;-62
2023/09/24 09:55:46;;;;;;;;;;;;;;;27.15;43.04;95028.69;4966127;28;7163;-62
2023/09/24 09:58:15;;;;;;;;;;;;;;;27.18;43.16;95032.44;4978006;28;7202;-62
2023/09/24 10:00:42;;;;;;;;;;;;;;;27.20;43.00;95019.63;4982304;28;7571;-62
2023/09/24 10:03:12;;;;;;;;;;;;;;;27.21;43.28;95018.34;4969348;28;7411;-62
2023/09/24 10:05:39;;;;;;;;;;;;;;;27.20;43.06;95016.13;4982000;28;7054;-61
2023/09/24 10:08:43;;;;;;;;;;;;;;;27.22;43.04;95019.13;4976489;28;7406;-62
2023/09/24 10:11:31;;;;;;;;;;;;;;;27.24;43.02;95019.38;5019084;28;9055;-62
2023/09/24 10:13:58;;;;;;;;;;;;;;;27.24;42.96;95017.34;5043763;28;7066;-62
2023/09/24 10:16:35;;;;;;;;;;;;;;;27.26;43.04;95017.59;5058854;28;7135;-62
2023/09/24 10:19:03;;;;;;;;;;;;;;;27.29;42.59;95021.38;5052645;28;8722;-63
2023/09/24 10:22:17;;;;;;;;;;;;;;;27.30;43.14;95025.63;5065727;28;8734;-61
2023/09/24 10:24:44;;;;;;;;;;;;;;;27.30;43.18;95018.09;5061165;28;8221;-62
2023/09/24 10:27:20;;;;;;;;;;;;;;;27.30;42.58;95012.56;5051629;28;9285;-62
2023/09/24 10:29:51;;;;;;;;;;;;;;;27.31;42.73;95016.84;5052412;28;6992;-62
2023/09/24 10:32:21;;;;;;;;;;;;;;;27.31;42.87;95014.06;5050120;28;8775;-62
2023/09/24 10:34:58;;;;;;;;;;;;;;;27.32;42.97;95010.03;5058526;28;7007;-62
2023/09/24 10:37:29;;;;;;;;;;;;;;;27.30;43.05;95007.03;5046529;28;7577;-62
2023/09/24 10:40:04;;;;;;;;;;;;;;;27.31;42.65;95011.31;5079278;28;7083;-62
2023/09/24 10:42:43;;;;;;;;;;;;;;;27.32;43.13;95004.53;5047869;28;7185;-63
2023/09/24 10:45:45;;;;;;;;;;;;;;;27.36;42.97;94999.50;5049773;28;7669;-62
2023/09/24 10:48:48;;;;;;;;;;;;;;;27.38;43.02;94996.25;4988652;28;7178;-62
2023/09/24 10:51:17;;;;;;;;;;;;;;;27.38;43.26;95001.78;4896192;29;9107;-62
2023/09/24 10:54:35;;;;;;;;;;;;;;;27.38;43.13;94999.75;4914379;29;7241;-62
2023/09/24 10:57:32;;;;;;;;;;;;;;;27.39;43.08;94994.97;4911835;29;7372;-62
2023/09/24 10:59:59;;;;;;;;;;;;;;;27.41;43.40;95000.75;4841273;29;7389;-62
2023/09/24 11:02:38;;;;;;;;;;;;;;;27.39;42.89;94992.97;4840324;29;9593;-62
2023/09/24 11:05:09;;;;;;;;;;;;;;;27.39;43.42;94989.47;4833723;29;7059;-62
2023/09/24 11:07:46;;;;;;;;;;;;;;;27.37;42.83;94983.69;4835836;29;7252;-63
2023/09/24 11:10:18;;;;;;;;;;;;;;;27.37;43.27;94987.22;4835687;29;9059;-62
2023/09/24 11:12:55;;;;;;;;;;;;;;;27.36;43.46;94980.16;4836807;29;7202;-63
2023/09/24 11:15:24;;;;;;;;;;;;;;;27.36;43.45;94982.94;4836567;29;7143;-63
2023/09/24 11:17:52;;;;;;;;;;;;;;;27.34;43.53;94979.91;4839639;29;7229;-62
2023/09/24 11:20:31;;;;;;;;;;;;;;;27.36;43.61;94976.69;4823272;29;8745;-63
2023/09/24 11:23:09;;;;;;;;;;;;;;;27.42;43.71;94985.69;4846767;29;7276;-63
2023/09/24 11:25:46;;;;;;;;;;;;;;;27.45;43.42;94985.41;4883044;28;9212;-63
2023/09/24 11:28:14;;;;;;;;;;;;;;;27.47;43.41;94980.13;4983273;28;7225;-62
2023/09/24 11:31:22;;;;;;;;;;;;;;;27.51;43.09;94966.06;4973493;28;7268;-63
2023/09/24 11:33:57;;;;;;;;;;;;;;;27.55;42.81;94974.84;4933578;28;7211;-63
2023/09/24 11:36:35;;;;;;;;;;;;;;;27.53;42.91;94966.31;4987438;28;7251;-62
2023/09/24 11:39:04;;;;;;;;;;;;;;;27.57;43.21;94973.06;5019993;28;9057;-61
2023/09/24 11:41:32;;;;;;;;;;;;;;;27.75;42.16;94968.94;5016099;28;9244;-61
2023/09/24 11:43:59;;;;;;;;;;;;;;;27.86;41.69;94963.31;5011806;28;7383;-61
2023/09/24 11:46:45;;;;;;;;;;;;;;;27.99;41.87;94971.09;5002448;28;6999;-62
2023/09/24 11:49:12;;;;;;;;;;;;;;;28.07;41.51;94961.72;5022633;28;7235;-62
2023/09/24 11:51:46;;;;;;;;;;;;;;;28.08;41.28;94951.41;5006852;28;9077;-62
2023/09/24 11:54:23;;;;;;;;;;;;;;;28.07;41.06;94945.13;5017417;28;7229;-62
2023/09/24 11:56:49;;;;;;;;;;;;;;;28.06;41.67;94942.88;5019264;28;7520;-62
2023/09/24 11:59:29;;;;;;;;;;;;;;;28.02;41.54;94947.94;5011088;28;7399;-62
2023/09/24 12:01:56;;;;;;;;;;;;;;;27.95;41.27;94937.41;5012908;28;8803;-62
2023/09/24 12:04:24;;;;;;;;;;;;;;;27.94;40.82;94935.91;5015474;28;7209;-62
2023/09/24 12:07:02;;;;;;;;;;;;;;;27.90;41.46;94929.91;5024363;28;7264;-62
2023/09/24 12:10:07;;;;;;;;;;;;;;;27.91;41.93;94931.38;5040499;28;7240;-62
2023/09/24 12:12:33;;;;;;;;;;;;;;;27.86;41.94;94934.97;5053821;28;6986;-62
2023/09/24 12:15:01;;;;;;;;;;;;;;;27.88;42.08;94929.66;5071850;28;7323;-60
2023/09/24 12:17:35;;;;;;;;;;;;;;;27.89;41.91;94926.38;5045384;28;7080;-60
2023/09/24 12:20:08;;;;;;;;;;;;;;;27.93;41.67;94920.56;5059624;28;7407;-60
2023/09/24 12:22:35;;;;;;;;;;;;;;;27.95;42.19;94915.28;5055885;28;7274;-60
2023/09/24 12:25:15;;;;;;;;;;;;;;;27.96;41.55;94911.25;5054619;28;7292;-60
2023/09/24 12:27:42;;;;;;;;;;;;;;;27.96;41.35;94906.47;5072863;28;8957;-60
2023/09/24 12:30:18;;;;;;;;;;;;;;;27.99;41.93;94899.19;5039233;28;7707;-60
2023/09/24 12:32:53;;;;;;;;;;;;;;;27.98;41.58;94897.69;5039697;28;7269;-60
2023/09/24 12:35:46;;;;;;;;;;;;;;;28.01;41.56;94899.44;5037822;28;7230;-60
2023/09/24 12:38:15;;;;;;;;;;;;;;;28.03;41.21;94902.44;5056851;28;7232;-60
2023/09/24 12:40:42;;;;;;;;;;;;;;;28.00;41.92;94895.16;5039174;28;6988;-60
2023/09/24 12:43:17;;;;;;;;;;;;;;;27.99;42.05;94890.91;5044098;28;7227;-61
2023/09/24 12:46:12;;;;;;;;;;;;;;;28.01;41.91;94894.66;5038173;28;6992;-60
2023/09/24 12:49:03;;;;;;;;;;;;;;;28.02;41.71;94890.63;5008295;28;9198;-60
2023/09/24 12:51:38;;;;;;;;;;;;;;;28.05;42.31;94888.84;4989658;28;7456;-60
2023/09/24 12:54:15;;;;;;;;;;;;;;;28.04;42.14;94890.09;5012227;28;9058;-60
2023/09/24 12:56:42;;;;;;;;;;;;;;;28.05;42.44;94897.13;4992741;28;7276;-60
2023/09/24 12:59:18;;;;;;;;;;;;;;;28.06;42.07;94888.31;5003076;28;9222;-60
2023/09/24 13:01:53;;;;;;;;;;;;;;;28.08;41.80;94887.78;4992122;28;7231;-60
2023/09/24 13:04:22;;;;;;;;;;;;;;;28.09;41.88;94892.06;5003028;28;7235;-60
2023/09/24 13:06:50;;;;;;;;;;;;;;;28.09;41.57;94881.75;5000211;28;7065;-61
2023/09/24 13:09:29;;;;;;;;;;;;;;;28.13;41.60;94887.75;4994455;28;7413;-60
2023/09/24 13:12:07;;;;;;;;;;;;;;;28.16;41.51;94883.22;4999445;28;7268;-60
2023/09/24 13:14:37;;;;;;;;;;;;;;;28.13;41.63;94887.75;5016196;28;7209;-60
2023/09/24 13:17:20;;;;;;;;;;;;;;;28.18;41.87;94883.44;4997434;28;8714;-60
2023/09/24 13:19:53;;;;;;;;;;;;;;;28.16;41.42;94875.69;4987179;28;7276;-60
2023/09/24 13:22:33;;;;;;;;;;;;;;;28.19;41.65;94879.41;4983211;28;8642;-60
2023/09/24 13:25:07;;;;;;;;;;;;;;;28.18;41.48;94867.59;5011784;28;7074;-61
2023/09/24 13:27:58;;;;;;;;;;;;;;;28.18;41.76;94875.91;5058005;28;7685;-61
2023/09/24 13:30:34;;;;;;;;;;;;;;;28.17;42.47;94877.16;5055642;28;9009;-61
2023/09/24 13:33:14;;;;;;;;;;;;;;;28.16;41.34;94870.16;5054812;28;7256;-61
2023/09/24 13:35:45;;;;;;;;;;;;;;;28.19;41.73;94873.88;5072665;28;9081;-61
2023/09/24 13:38:49;;;;;;;;;;;;;;;28.20;41.99;94876.13;5047963;28;9004;-61
2023/09/24 13:41:31;;;;;;;;;;;;;;;28.22;41.78;94875.59;4984570;28;8780;-61
2023/09/24 13:44:35;;;;;;;;;;;;;;;28.26;41.82;94873.31;5000204;28;7416;-61
2023/09/24 13:47:17;;;;;;;;;;;;;;;28.26;41.92;94863.00;4996818;28;7190;-61
2023/09/24 13:49:43;;;;;;;;;;;;;;;28.28;42.38;94863.22;5014651;28;9213;-61
2023/09/24 13:52:18;;;;;;;;;;;;;;;28.29;41.54;94861.22;5000936;28;7307;-61